sensor_id;sensor_type;location;lat;lon;timestamp;temperature;humidity
17639;DHT22;8938;53.546;9.954;2022-08-04T00:00:08;27.00;99.90
17639;DHT22;8938;53.546;9.954;2022-08-04T00:05:18;27.00;99.90
17639;DHT22;8938;53.546;9.954;2022-08-04T00:07:57;26.90;99.90
17639;DHT22;8938;53.546;9.954;2022-08-04T00:10:26;26.80;99.90
17639;DHT22;8938;53.546;9.954;2022-08-04T00:12:54;26.70;99.90
17639;DHT22;8938;53.546;9.954;2022-08-04T00:15:22;26.70;99.90
17639;DHT22;8938;53.546;9.954;2022-08-04T00:17:53;26.80;99.90
17639;DHT22;8938;53.546;9.954;2022-08-04T00:20:20;26.80;99.90
17639;DHT22;8938;53.546;9.954;2022-08-04T00:22:47;26.80;99.90
17639;DHT22;8938;53.546;9.954;2022-08-04T00:25:13;26.80;99.90
17639;DHT22;8938;53.546;9.954;2022-08-04T00:27:39;26.80;99.90
17639;DHT22;8938;53.546;9.954;2022-08-04T00:30:06;26.70;99.90
17639;DHT22;8938;53.546;9.954;2022-08-04T00:32:32;26.70;99.90
17639;DHT22;8938;53.546;9.954;2022-08-04T00:34:58;26.80;99.90
17639;DHT22;8938;53.546;9.954;2022-08-04T00:37:25;26.70;99.90
17639;DHT22;8938;53.546;9.954;2022-08-04T00:39:53;26.70;99.90
17639;DHT22;8938;53.546;9.954;2022-08-04T00:53:23;26.70;99.90
17639;DHT22;8938;53.546;9.954;2022-08-04T01:01:32;26.60;99.90
17639;DHT22;8938;53.546;9.954;2022-08-04T01:04:48;26.50;99.90
17639;DHT22;8938;53.546;9.954;2022-08-04T01:10:09;26.50;99.90
17639;DHT22;8938;53.546;9.954;2022-08-04T01:18:14;26.30;99.90
17639;DHT22;8938;53.546;9.954;2022-08-04T01:21:01;26.40;99.90
17639;DHT22;8938;53.546;9.954;2022-08-04T01:27:05;26.50;99.90
17639;DHT22;8938;53.546;9.954;2022-08-04T01:29:37;26.50;99.90
17639;DHT22;8938;53.546;9.954;2022-08-04T01:32:07;26.50;99.90
17639;DHT22;8938;53.546;9.954;2022-08-04T01:35:04;26.40;99.90
17639;DHT22;8938;53.546;9.954;2022-08-04T01:38:00;26.40;99.90
17639;DHT22;8938;53.546;9.954;2022-08-04T01:40:29;26.40;99.90
17639;DHT22;8938;53.546;9.954;2022-08-04T01:42:57;26.50;99.90
17639;DHT22;8938;53.546;9.954;2022-08-04T01:45:24;26.50;99.90
17639;DHT22;8938;53.546;9.954;2022-08-04T01:47:53;26.50;99.90
17639;DHT22;8938;53.546;9.954;2022-08-04T01:50:20;26.60;99.90
17639;DHT22;8938;53.546;9.954;2022-08-04T01:52:46;26.60;99.90
17639;DHT22;8938;53.546;9.954;2022-08-04T01:55:13;26.70;99.90
17639;DHT22;8938;53.546;9.954;2022-08-04T01:57:48;26.70;99.90
17639;DHT22;8938;53.546;9.954;2022-08-04T02:00:23;26.60;99.90
17639;DHT22;8938;53.546;9.954;2022-08-04T02:02:51;26.60;99.90
17639;DHT22;8938;53.546;9.954;2022-08-04T02:05:19;26.50;99.90
17639;DHT22;8938;53.546;9.954;2022-08-04T02:08:16;26.50;99.90
17639;DHT22;8938;53.546;9.954;2022-08-04T02:11:17;26.50;99.90
17639;DHT22;8938;53.546;9.954;2022-08-04T02:16:46;26.40;99.90
17639;DHT22;8938;53.546;9.954;2022-08-04T02:19:24;26.40;99.90
17639;DHT22;8938;53.546;9.954;2022-08-04T02:22:07;26.40;99.90
17639;DHT22;8938;53.546;9.954;2022-08-04T02:24:44;26.40;99.90
17639;DHT22;8938;53.546;9.954;2022-08-04T02:27:12;26.40;99.90
17639;DHT22;8938;53.546;9.954;2022-08-04T02:29:53;26.40;99.90
17639;DHT22;8938;53.546;9.954;2022-08-04T02:32:26;26.30;99.90
17639;DHT22;8938;53.546;9.954;2022-08-04T02:38:11;26.30;99.90
17639;DHT22;8938;53.546;9.954;2022-08-04T02:40:38;26.30;99.90
17639;DHT22;8938;53.546;9.954;2022-08-04T02:43:05;26.30;99.90
17639;DHT22;8938;53.546;9.954;2022-08-04T02:45:35;26.40;99.90
17639;DHT22;8938;53.546;9.954;2022-08-04T02:48:02;26.30;99.90
17639;DHT22;8938;53.546;9.954;2022-08-04T02:50:31;26.20;99.90
17639;DHT22;8938;53.546;9.954;2022-08-04T02:52:59;26.30;99.90
17639;DHT22;8938;53.546;9.954;2022-08-04T02:55:28;26.20;99.90
17639;DHT22;8938;53.546;9.954;2022-08-04T02:57:57;26.10;99.90
17639;DHT22;8938;53.546;9.954;2022-08-04T03:00:23;26.20;99.90
17639;DHT22;8938;53.546;9.954;2022-08-04T03:08:44;26.10;99.90
17639;DHT22;8938;53.546;9.954;2022-08-04T03:14:58;26.10;99.90
17639;DHT22;8938;53.546;9.954;2022-08-04T03:34:19;25.90;99.90
17639;DHT22;8938;53.546;9.954;2022-08-04T03:37:28;26.00;99.90
17639;DHT22;8938;53.546;9.954;2022-08-04T03:52:05;25.90;99.90
17639;DHT22;8938;53.546;9.954;2022-08-04T04:01:02;25.80;99.90
17639;DHT22;8938;53.546;9.954;2022-08-04T04:03:40;25.80;99.90
17639;DHT22;8938;53.546;9.954;2022-08-04T04:09:27;25.70;99.90
17639;DHT22;8938;53.546;9.954;2022-08-04T04:12:17;25.70;99.90
17639;DHT22;8938;53.546;9.954;2022-08-04T04:24:00;25.70;99.90
17639;DHT22;8938;53.546;9.954;2022-08-04T04:29:27;25.80;99.90
17639;DHT22;8938;53.546;9.954;2022-08-04T04:40:31;25.80;99.90
17639;DHT22;8938;53.546;9.954;2022-08-04T04:46:12;25.90;99.90
17639;DHT22;8938;53.546;9.954;2022-08-04T04:49:03;25.90;99.90
17639;DHT22;8938;53.546;9.954;2022-08-04T04:51:41;25.90;99.90
17639;DHT22;8938;53.546;9.954;2022-08-04T04:54:21;25.90;99.90
17639;DHT22;8938;53.546;9.954;2022-08-04T04:57:20;25.90;99.90
17639;DHT22;8938;53.546;9.954;2022-08-04T05:13:57;26.20;99.90
17639;DHT22;8938;53.546;9.954;2022-08-04T05:16:31;26.20;99.90
17639;DHT22;8938;53.546;9.954;2022-08-04T05:21:50;26.00;99.90
17639;DHT22;8938;53.546;9.954;2022-08-04T05:24:19;26.00;99.90
17639;DHT22;8938;53.546;9.954;2022-08-04T05:26:50;26.00;99.90
17639;DHT22;8938;53.546;9.954;2022-08-04T05:29:37;26.00;99.90
17639;DHT22;8938;53.546;9.954;2022-08-04T05:32:10;26.00;99.90
17639;DHT22;8938;53.546;9.954;2022-08-04T05:34:43;26.00;99.90
17639;DHT22;8938;53.546;9.954;2022-08-04T05:37:15;26.00;99.90
17639;DHT22;8938;53.546;9.954;2022-08-04T05:39:45;26.10;99.90
17639;DHT22;8938;53.546;9.954;2022-08-04T05:42:13;26.10;99.90
17639;DHT22;8938;53.546;9.954;2022-08-04T05:44:39;26.20;99.90
17639;DHT22;8938;53.546;9.954;2022-08-04T05:47:06;26.30;99.90
17639;DHT22;8938;53.546;9.954;2022-08-04T05:49:33;26.30;99.90
17639;DHT22;8938;53.546;9.954;2022-08-04T05:52:01;26.40;99.90
17639;DHT22;8938;53.546;9.954;2022-08-04T05:54:29;26.50;99.90
17639;DHT22;8938;53.546;9.954;2022-08-04T05:56:56;26.50;99.90
17639;DHT22;8938;53.546;9.954;2022-08-04T05:59:23;26.50;99.90
17639;DHT22;8938;53.546;9.954;2022-08-04T06:01:50;26.60;99.90
17639;DHT22;8938;53.546;9.954;2022-08-04T06:04:17;26.60;99.90
17639;DHT22;8938;53.546;9.954;2022-08-04T06:06:44;26.70;99.90
17639;DHT22;8938;53.546;9.954;2022-08-04T06:09:10;26.70;99.90
17639;DHT22;8938;53.546;9.954;2022-08-04T06:11:37;26.80;99.90
17639;DHT22;8938;53.546;9.954;2022-08-04T06:14:07;26.80;99.90
17639;DHT22;8938;53.546;9.954;2022-08-04T06:16:39;26.90;99.90
17639;DHT22;8938;53.546;9.954;2022-08-04T06:19:08;27.00;99.90
17639;DHT22;8938;53.546;9.954;2022-08-04T06:21:38;27.00;99.90
17639;DHT22;8938;53.546;9.954;2022-08-04T06:24:06;27.00;99.90
17639;DHT22;8938;53.546;9.954;2022-08-04T06:26:35;27.00;99.90
17639;DHT22;8938;53.546;9.954;2022-08-04T06:29:01;27.10;99.90
17639;DHT22;8938;53.546;9.954;2022-08-04T06:31:27;27.20;99.90
17639;DHT22;8938;53.546;9.954;2022-08-04T06:34:09;27.20;99.90
17639;DHT22;8938;53.546;9.954;2022-08-04T06:36:37;27.40;99.90
17639;DHT22;8938;53.546;9.954;2022-08-04T06:39:06;27.30;99.90
17639;DHT22;8938;53.546;9.954;2022-08-04T06:41:33;27.40;99.90
17639;DHT22;8938;53.546;9.954;2022-08-04T06:44:02;27.30;99.90
17639;DHT22;8938;53.546;9.954;2022-08-04T06:46:30;27.30;99.90
17639;DHT22;8938;53.546;9.954;2022-08-04T06:49:03;27.40;99.90
17639;DHT22;8938;53.546;9.954;2022-08-04T06:51:30;27.40;99.90
17639;DHT22;8938;53.546;9.954;2022-08-04T06:53:57;27.50;99.90
17639;DHT22;8938;53.546;9.954;2022-08-04T06:56:23;27.60;99.90
17639;DHT22;8938;53.546;9.954;2022-08-04T06:58:51;27.70;99.90
17639;DHT22;8938;53.546;9.954;2022-08-04T07:01:19;27.70;99.90
17639;DHT22;8938;53.546;9.954;2022-08-04T07:03:47;27.80;99.90
17639;DHT22;8938;53.546;9.954;2022-08-04T07:06:13;27.80;99.90
17639;DHT22;8938;53.546;9.954;2022-08-04T07:08:39;27.80;99.90
17639;DHT22;8938;53.546;9.954;2022-08-04T07:11:05;28.00;99.90
17639;DHT22;8938;53.546;9.954;2022-08-04T07:13:32;27.90;99.90
17639;DHT22;8938;53.546;9.954;2022-08-04T07:15:58;28.00;99.90
17639;DHT22;8938;53.546;9.954;2022-08-04T07:18:25;28.00;99.90
17639;DHT22;8938;53.546;9.954;2022-08-04T07:20:51;28.10;99.90
17639;DHT22;8938;53.546;9.954;2022-08-04T07:23:22;28.10;99.90
17639;DHT22;8938;53.546;9.954;2022-08-04T07:25:52;28.20;99.90
17639;DHT22;8938;53.546;9.954;2022-08-04T07:28:19;28.30;99.90
17639;DHT22;8938;53.546;9.954;2022-08-04T07:30:47;28.40;99.90
17639;DHT22;8938;53.546;9.954;2022-08-04T07:33:14;28.50;99.90
17639;DHT22;8938;53.546;9.954;2022-08-04T07:35:41;28.50;99.90
17639;DHT22;8938;53.546;9.954;2022-08-04T07:38:07;28.50;99.90
17639;DHT22;8938;53.546;9.954;2022-08-04T07:40:35;28.60;99.90
17639;DHT22;8938;53.546;9.954;2022-08-04T07:43:01;28.60;99.90
17639;DHT22;8938;53.546;9.954;2022-08-04T07:45:26;28.70;99.90
17639;DHT22;8938;53.546;9.954;2022-08-04T07:47:52;28.80;99.90
17639;DHT22;8938;53.546;9.954;2022-08-04T07:50:18;28.90;99.90
17639;DHT22;8938;53.546;9.954;2022-08-04T07:52:45;29.00;99.90
17639;DHT22;8938;53.546;9.954;2022-08-04T07:55:12;29.10;99.90
17639;DHT22;8938;53.546;9.954;2022-08-04T07:57:38;29.10;99.90
17639;DHT22;8938;53.546;9.954;2022-08-04T08:00:05;29.20;99.90
17639;DHT22;8938;53.546;9.954;2022-08-04T08:02:32;29.40;99.90
17639;DHT22;8938;53.546;9.954;2022-08-04T08:04:59;29.60;99.90
17639;DHT22;8938;53.546;9.954;2022-08-04T08:07:25;29.80;99.90
17639;DHT22;8938;53.546;9.954;2022-08-04T08:09:51;29.90;99.90
17639;DHT22;8938;53.546;9.954;2022-08-04T08:12:17;29.90;99.90
17639;DHT22;8938;53.546;9.954;2022-08-04T08:14:44;30.00;99.90
17639;DHT22;8938;53.546;9.954;2022-08-04T08:17:09;30.10;99.90
17639;DHT22;8938;53.546;9.954;2022-08-04T08:19:35;30.30;99.90
17639;DHT22;8938;53.546;9.954;2022-08-04T08:22:01;30.40;99.90
17639;DHT22;8938;53.546;9.954;2022-08-04T08:24:35;30.50;99.90
17639;DHT22;8938;53.546;9.954;2022-08-04T08:27:02;30.60;99.90
17639;DHT22;8938;53.546;9.954;2022-08-04T08:29:33;30.80;99.90
17639;DHT22;8938;53.546;9.954;2022-08-04T08:31:59;31.00;99.90
17639;DHT22;8938;53.546;9.954;2022-08-04T08:34:27;31.10;99.90
17639;DHT22;8938;53.546;9.954;2022-08-04T08:37:00;31.50;99.90
17639;DHT22;8938;53.546;9.954;2022-08-04T08:39:38;31.50;99.80
17639;DHT22;8938;53.546;9.954;2022-08-04T08:42:51;31.70;99.30
17639;DHT22;8938;53.546;9.954;2022-08-04T08:50:58;32.00;98.10
17639;DHT22;8938;53.546;9.954;2022-08-04T08:53:58;32.00;97.80
17639;DHT22;8938;53.546;9.954;2022-08-04T09:02:32;32.50;97.50
17639;DHT22;8938;53.546;9.954;2022-08-04T09:05:06;32.60;97.40
17639;DHT22;8938;53.546;9.954;2022-08-04T09:10:27;32.80;96.10
17639;DHT22;8938;53.546;9.954;2022-08-04T09:13:21;32.90;95.90
17639;DHT22;8938;53.546;9.954;2022-08-04T09:16:10;33.00;95.30
17639;DHT22;8938;53.546;9.954;2022-08-04T09:21:50;33.30;95.10
17639;DHT22;8938;53.546;9.954;2022-08-04T09:24:29;33.50;94.60
17639;DHT22;8938;53.546;9.954;2022-08-04T09:27:02;33.50;94.20
17639;DHT22;8938;53.546;9.954;2022-08-04T09:29:36;33.90;93.90
17639;DHT22;8938;53.546;9.954;2022-08-04T09:34:55;37.20;91.60
17639;DHT22;8938;53.546;9.954;2022-08-04T09:46:14;41.80;76.10
17639;DHT22;8938;53.546;9.954;2022-08-04T09:49:17;42.30;72.40
17639;DHT22;8938;53.546;9.954;2022-08-04T09:54:42;42.80;69.90
17639;DHT22;8938;53.546;9.954;2022-08-04T09:59:54;43.30;65.90
17639;DHT22;8938;53.546;9.954;2022-08-04T10:02:23;43.20;65.30
17639;DHT22;8938;53.546;9.954;2022-08-04T10:04:54;43.30;64.90
17639;DHT22;8938;53.546;9.954;2022-08-04T10:07:41;43.30;64.00
17639;DHT22;8938;53.546;9.954;2022-08-04T10:15:45;43.20;62.90
17639;DHT22;8938;53.546;9.954;2022-08-04T10:18:26;43.10;61.90
17639;DHT22;8938;53.546;9.954;2022-08-04T10:21:22;42.70;61.60
17639;DHT22;8938;53.546;9.954;2022-08-04T10:23:57;42.30;62.00
17639;DHT22;8938;53.546;9.954;2022-08-04T10:26:44;42.30;61.90
17639;DHT22;8938;53.546;9.954;2022-08-04T10:29:29;42.10;61.70
17639;DHT22;8938;53.546;9.954;2022-08-04T10:32:10;41.60;62.20
17639;DHT22;8938;53.546;9.954;2022-08-04T10:40:35;41.90;61.90
17639;DHT22;8938;53.546;9.954;2022-08-04T10:43:41;42.10;62.20
17639;DHT22;8938;53.546;9.954;2022-08-04T10:46:14;42.10;61.60
17639;DHT22;8938;53.546;9.954;2022-08-04T10:48:56;41.90;61.20
17639;DHT22;8938;53.546;9.954;2022-08-04T10:51:34;41.30;61.00
17639;DHT22;8938;53.546;9.954;2022-08-04T10:54:07;40.70;60.50
17639;DHT22;8938;53.546;9.954;2022-08-04T10:56:39;40.00;61.30
17639;DHT22;8938;53.546;9.954;2022-08-04T10:59:42;39.60;62.20
17639;DHT22;8938;53.546;9.954;2022-08-04T11:02:45;39.20;62.60
17639;DHT22;8938;53.546;9.954;2022-08-04T11:07:50;38.40;62.00
17639;DHT22;8938;53.546;9.954;2022-08-04T11:10:20;38.10;62.30
17639;DHT22;8938;53.546;9.954;2022-08-04T11:12:51;37.80;62.20
17639;DHT22;8938;53.546;9.954;2022-08-04T11:15:24;37.50;62.20
17639;DHT22;8938;53.546;9.954;2022-08-04T11:17:56;37.20;62.90
17639;DHT22;8938;53.546;9.954;2022-08-04T11:23:01;37.30;63.00
17639;DHT22;8938;53.546;9.954;2022-08-04T11:25:34;37.40;62.70
17639;DHT22;8938;53.546;9.954;2022-08-04T11:28:28;37.60;61.10
17639;DHT22;8938;53.546;9.954;2022-08-04T11:31:04;37.70;60.70
17639;DHT22;8938;53.546;9.954;2022-08-04T11:33:46;37.90;60.00
17639;DHT22;8938;53.546;9.954;2022-08-04T11:39:08;38.00;58.40
17639;DHT22;8938;53.546;9.954;2022-08-04T11:41:46;37.90;58.70
17639;DHT22;8938;53.546;9.954;2022-08-04T11:44:42;38.00;58.60
17639;DHT22;8938;53.546;9.954;2022-08-04T11:47:15;38.00;57.30
17639;DHT22;8938;53.546;9.954;2022-08-04T11:49:45;38.20;56.50
17639;DHT22;8938;53.546;9.954;2022-08-04T11:52:14;38.30;56.00
17639;DHT22;8938;53.546;9.954;2022-08-04T11:54:42;38.20;55.80
17639;DHT22;8938;53.546;9.954;2022-08-04T11:57:09;38.00;55.50
17639;DHT22;8938;53.546;9.954;2022-08-04T11:59:36;37.90;55.30
17639;DHT22;8938;53.546;9.954;2022-08-04T12:02:27;37.80;55.40
17639;DHT22;8938;53.546;9.954;2022-08-04T12:04:59;37.70;55.50
17639;DHT22;8938;53.546;9.954;2022-08-04T12:12:38;38.40;54.70
17639;DHT22;8938;53.546;9.954;2022-08-04T12:15:26;38.50;54.40
17639;DHT22;8938;53.546;9.954;2022-08-04T12:18:20;38.60;54.80
17639;DHT22;8938;53.546;9.954;2022-08-04T12:20:50;38.60;54.70
17639;DHT22;8938;53.546;9.954;2022-08-04T12:23:23;38.80;54.60
17639;DHT22;8938;53.546;9.954;2022-08-04T12:25:52;38.90;54.80
17639;DHT22;8938;53.546;9.954;2022-08-04T12:28:31;38.70;54.60
17639;DHT22;8938;53.546;9.954;2022-08-04T12:31:45;38.60;54.80
17639;DHT22;8938;53.546;9.954;2022-08-04T12:33:58;38.50;54.90
17639;DHT22;8938;53.546;9.954;2022-08-04T12:36:30;38.70;54.90
17639;DHT22;8938;53.546;9.954;2022-08-04T12:39:15;39.00;54.80
17639;DHT22;8938;53.546;9.954;2022-08-04T12:41:51;39.10;54.50
17639;DHT22;8938;53.546;9.954;2022-08-04T12:44:21;39.20;54.30
17639;DHT22;8938;53.546;9.954;2022-08-04T12:46:48;39.40;54.20
17639;DHT22;8938;53.546;9.954;2022-08-04T12:49:14;39.20;53.80
17639;DHT22;8938;53.546;9.954;2022-08-04T12:51:43;39.20;54.20
17639;DHT22;8938;53.546;9.954;2022-08-04T12:54:10;39.20;54.50
17639;DHT22;8938;53.546;9.954;2022-08-04T12:56:38;39.20;54.00
17639;DHT22;8938;53.546;9.954;2022-08-04T12:59:09;39.00;53.90
17639;DHT22;8938;53.546;9.954;2022-08-04T13:01:36;38.70;54.20
17639;DHT22;8938;53.546;9.954;2022-08-04T13:04:17;38.50;54.80
17639;DHT22;8938;53.546;9.954;2022-08-04T13:06:44;38.30;55.10
17639;DHT22;8938;53.546;9.954;2022-08-04T13:09:19;38.30;55.30
17639;DHT22;8938;53.546;9.954;2022-08-04T13:12:18;38.30;55.30
17639;DHT22;8938;53.546;9.954;2022-08-04T13:14:48;38.30;55.10
17639;DHT22;8938;53.546;9.954;2022-08-04T13:17:15;38.50;55.20
17639;DHT22;8938;53.546;9.954;2022-08-04T13:19:46;38.80;55.00
17639;DHT22;8938;53.546;9.954;2022-08-04T13:22:12;38.70;54.40
17639;DHT22;8938;53.546;9.954;2022-08-04T13:24:41;38.70;54.70
17639;DHT22;8938;53.546;9.954;2022-08-04T13:27:09;38.90;54.50
17639;DHT22;8938;53.546;9.954;2022-08-04T13:29:43;38.90;54.80
17639;DHT22;8938;53.546;9.954;2022-08-04T13:32:09;39.00;55.00
17639;DHT22;8938;53.546;9.954;2022-08-04T13:34:40;39.10;54.90
17639;DHT22;8938;53.546;9.954;2022-08-04T13:37:06;39.50;54.30
17639;DHT22;8938;53.546;9.954;2022-08-04T13:39:33;39.60;54.00
17639;DHT22;8938;53.546;9.954;2022-08-04T13:42:03;39.50;54.00
17639;DHT22;8938;53.546;9.954;2022-08-04T13:44:34;39.30;53.10
17639;DHT22;8938;53.546;9.954;2022-08-04T13:49:29;38.70;53.60
17639;DHT22;8938;53.546;9.954;2022-08-04T13:52:04;38.40;54.20
17639;DHT22;8938;53.546;9.954;2022-08-04T13:54:41;38.30;54.90
17639;DHT22;8938;53.546;9.954;2022-08-04T13:57:16;38.40;55.50
17639;DHT22;8938;53.546;9.954;2022-08-04T13:59:46;38.60;56.30
17639;DHT22;8938;53.546;9.954;2022-08-04T14:02:32;38.80;55.50
17639;DHT22;8938;53.546;9.954;2022-08-04T14:05:25;38.80;55.50
17639;DHT22;8938;53.546;9.954;2022-08-04T14:07:54;38.70;55.70
17639;DHT22;8938;53.546;9.954;2022-08-04T14:10:20;38.60;55.30
17639;DHT22;8938;53.546;9.954;2022-08-04T14:12:48;38.60;55.20
17639;DHT22;8938;53.546;9.954;2022-08-04T14:15:39;38.60;55.10
17639;DHT22;8938;53.546;9.954;2022-08-04T14:18:26;38.60;55.20
17639;DHT22;8938;53.546;9.954;2022-08-04T14:23:27;38.70;55.40
17639;DHT22;8938;53.546;9.954;2022-08-04T14:25:53;38.70;55.40
17639;DHT22;8938;53.546;9.954;2022-08-04T14:28:29;38.80;55.50
17639;DHT22;8938;53.546;9.954;2022-08-04T14:33:39;38.70;55.40
17639;DHT22;8938;53.546;9.954;2022-08-04T14:36:05;38.50;54.70
17639;DHT22;8938;53.546;9.954;2022-08-04T14:38:43;38.20;55.10
17639;DHT22;8938;53.546;9.954;2022-08-04T14:41:09;37.90;55.40
17639;DHT22;8938;53.546;9.954;2022-08-04T14:43:46;37.80;55.30
17639;DHT22;8938;53.546;9.954;2022-08-04T14:46:12;37.60;55.80
17639;DHT22;8938;53.546;9.954;2022-08-04T14:48:38;37.60;58.20
17639;DHT22;8938;53.546;9.954;2022-08-04T14:51:12;37.30;60.00
17639;DHT22;8938;53.546;9.954;2022-08-04T14:53:46;36.90;62.90
17639;DHT22;8938;53.546;9.954;2022-08-04T14:56:12;36.50;65.70
17639;DHT22;8938;53.546;9.954;2022-08-04T14:58:37;36.10;67.60
17639;DHT22;8938;53.546;9.954;2022-08-04T15:01:06;35.70;69.80
17639;DHT22;8938;53.546;9.954;2022-08-04T15:03:32;35.10;71.10
17639;DHT22;8938;53.546;9.954;2022-08-04T15:05:59;34.80;72.70
17639;DHT22;8938;53.546;9.954;2022-08-04T15:08:26;34.30;73.60
17639;DHT22;8938;53.546;9.954;2022-08-04T15:10:53;34.00;74.60
17639;DHT22;8938;53.546;9.954;2022-08-04T15:13:23;33.70;76.10
17639;DHT22;8938;53.546;9.954;2022-08-04T15:15:49;33.50;76.90
17639;DHT22;8938;53.546;9.954;2022-08-04T15:18:15;33.30;77.80
17639;DHT22;8938;53.546;9.954;2022-08-04T15:20:40;33.20;78.20
17639;DHT22;8938;53.546;9.954;2022-08-04T15:23:08;33.10;78.20
17639;DHT22;8938;53.546;9.954;2022-08-04T15:25:37;32.80;78.40
17639;DHT22;8938;53.546;9.954;2022-08-04T15:28:03;32.60;78.70
17639;DHT22;8938;53.546;9.954;2022-08-04T15:30:30;32.60;78.90
17639;DHT22;8938;53.546;9.954;2022-08-04T15:32:59;32.40;79.20
17639;DHT22;8938;53.546;9.954;2022-08-04T15:35:26;32.30;79.80
17639;DHT22;8938;53.546;9.954;2022-08-04T15:40:46;31.80;81.10
17639;DHT22;8938;53.546;9.954;2022-08-04T15:45:52;31.40;81.60
17639;DHT22;8938;53.546;9.954;2022-08-04T15:53:20;30.10;85.30
17639;DHT22;8938;53.546;9.954;2022-08-04T15:55:46;29.00;89.50
17639;DHT22;8938;53.546;9.954;2022-08-04T15:58:13;28.00;91.50
17639;DHT22;8938;53.546;9.954;2022-08-04T16:16:30;26.40;99.90
17639;DHT22;8938;53.546;9.954;2022-08-04T16:19:09;26.60;99.90
17639;DHT22;8938;53.546;9.954;2022-08-04T16:21:47;26.80;99.90
17639;DHT22;8938;53.546;9.954;2022-08-04T16:24:16;27.00;99.90
17639;DHT22;8938;53.546;9.954;2022-08-04T16:26:50;27.40;99.90
17639;DHT22;8938;53.546;9.954;2022-08-04T16:34:41;27.90;99.90
17639;DHT22;8938;53.546;9.954;2022-08-04T16:37:09;28.00;99.90
17639;DHT22;8938;53.546;9.954;2022-08-04T16:39:35;27.90;99.90
17639;DHT22;8938;53.546;9.954;2022-08-04T16:50:21;27.40;99.90
17639;DHT22;8938;53.546;9.954;2022-08-04T16:52:53;27.30;99.90
17639;DHT22;8938;53.546;9.954;2022-08-04T16:55:22;27.20;99.90
17639;DHT22;8938;53.546;9.954;2022-08-04T16:57:49;27.30;99.90
17639;DHT22;8938;53.546;9.954;2022-08-04T17:00:16;27.20;99.90
17639;DHT22;8938;53.546;9.954;2022-08-04T17:02:43;27.20;99.90
17639;DHT22;8938;53.546;9.954;2022-08-04T17:05:23;27.30;99.90
17639;DHT22;8938;53.546;9.954;2022-08-04T17:10:15;27.30;99.90
17639;DHT22;8938;53.546;9.954;2022-08-04T17:12:41;27.30;99.90
17639;DHT22;8938;53.546;9.954;2022-08-04T17:15:23;27.30;99.90
17639;DHT22;8938;53.546;9.954;2022-08-04T17:17:49;27.30;99.90
17639;DHT22;8938;53.546;9.954;2022-08-04T17:20:15;27.40;99.90
17639;DHT22;8938;53.546;9.954;2022-08-04T17:22:41;27.40;99.90
17639;DHT22;8938;53.546;9.954;2022-08-04T17:25:08;27.50;99.90
17639;DHT22;8938;53.546;9.954;2022-08-04T17:27:35;27.70;99.90
17639;DHT22;8938;53.546;9.954;2022-08-04T17:30:01;27.70;99.90
17639;DHT22;8938;53.546;9.954;2022-08-04T17:32:27;27.80;99.90
17639;DHT22;8938;53.546;9.954;2022-08-04T17:34:54;27.90;99.90
17639;DHT22;8938;53.546;9.954;2022-08-04T17:37:21;28.00;99.90
17639;DHT22;8938;53.546;9.954;2022-08-04T17:39:49;28.00;99.90
17639;DHT22;8938;53.546;9.954;2022-08-04T17:42:28;28.00;99.90
17639;DHT22;8938;53.546;9.954;2022-08-04T17:45:06;27.90;99.90
17639;DHT22;8938;53.546;9.954;2022-08-04T17:47:32;27.70;99.90
17639;DHT22;8938;53.546;9.954;2022-08-04T17:50:08;27.70;99.90
17639;DHT22;8938;53.546;9.954;2022-08-04T17:52:34;27.70;99.90
17639;DHT22;8938;53.546;9.954;2022-08-04T17:55:01;27.70;99.90
17639;DHT22;8938;53.546;9.954;2022-08-04T17:57:27;27.80;99.90
17639;DHT22;8938;53.546;9.954;2022-08-04T17:59:55;27.80;99.90
17639;DHT22;8938;53.546;9.954;2022-08-04T18:02:30;28.00;99.90
17639;DHT22;8938;53.546;9.954;2022-08-04T18:04:55;27.90;99.90
17639;DHT22;8938;53.546;9.954;2022-08-04T18:07:23;27.90;99.90
17639;DHT22;8938;53.546;9.954;2022-08-04T18:09:51;28.00;99.90
17639;DHT22;8938;53.546;9.954;2022-08-04T18:15:00;27.90;99.90
17639;DHT22;8938;53.546;9.954;2022-08-04T18:19:59;27.80;99.90
17639;DHT22;8938;53.546;9.954;2022-08-04T18:22:26;27.80;99.90
17639;DHT22;8938;53.546;9.954;2022-08-04T18:24:52;27.70;99.90
17639;DHT22;8938;53.546;9.954;2022-08-04T18:27:19;27.80;99.90
17639;DHT22;8938;53.546;9.954;2022-08-04T18:29:46;27.70;99.90
17639;DHT22;8938;53.546;9.954;2022-08-04T18:32:12;27.70;99.90
17639;DHT22;8938;53.546;9.954;2022-08-04T18:34:37;27.60;99.90
17639;DHT22;8938;53.546;9.954;2022-08-04T18:37:03;27.50;99.90
17639;DHT22;8938;53.546;9.954;2022-08-04T18:39:29;27.40;99.90
17639;DHT22;8938;53.546;9.954;2022-08-04T18:41:55;27.30;99.90
17639;DHT22;8938;53.546;9.954;2022-08-04T18:44:21;27.30;99.90
17639;DHT22;8938;53.546;9.954;2022-08-04T18:46:47;27.30;99.90
17639;DHT22;8938;53.546;9.954;2022-08-04T18:49:12;27.30;99.90
17639;DHT22;8938;53.546;9.954;2022-08-04T18:51:38;27.30;99.90
17639;DHT22;8938;53.546;9.954;2022-08-04T18:54:05;27.30;99.90
17639;DHT22;8938;53.546;9.954;2022-08-04T18:56:32;27.20;99.90
17639;DHT22;8938;53.546;9.954;2022-08-04T18:59:02;27.20;99.90
17639;DHT22;8938;53.546;9.954;2022-08-04T19:01:28;27.10;99.90
17639;DHT22;8938;53.546;9.954;2022-08-04T19:03:54;27.10;99.90
17639;DHT22;8938;53.546;9.954;2022-08-04T19:06:19;27.10;99.90
17639;DHT22;8938;53.546;9.954;2022-08-04T19:08:45;27.10;99.90
17639;DHT22;8938;53.546;9.954;2022-08-04T19:11:11;27.10;99.90
17639;DHT22;8938;53.546;9.954;2022-08-04T19:13:38;27.00;99.90
17639;DHT22;8938;53.546;9.954;2022-08-04T19:16:04;26.90;99.90
17639;DHT22;8938;53.546;9.954;2022-08-04T19:18:29;26.90;99.90
17639;DHT22;8938;53.546;9.954;2022-08-04T19:20:57;26.80;99.90
17639;DHT22;8938;53.546;9.954;2022-08-04T19:23:22;26.70;99.90
17639;DHT22;8938;53.546;9.954;2022-08-04T19:25:49;26.60;99.90
17639;DHT22;8938;53.546;9.954;2022-08-04T19:28:15;26.50;99.90
17639;DHT22;8938;53.546;9.954;2022-08-04T19:30:41;26.50;99.90
17639;DHT22;8938;53.546;9.954;2022-08-04T19:33:06;26.50;99.90
17639;DHT22;8938;53.546;9.954;2022-08-04T19:35:32;26.50;99.90
17639;DHT22;8938;53.546;9.954;2022-08-04T19:37:57;26.40;99.90
17639;DHT22;8938;53.546;9.954;2022-08-04T19:40:23;26.40;99.90
17639;DHT22;8938;53.546;9.954;2022-08-04T19:42:50;26.50;99.90
17639;DHT22;8938;53.546;9.954;2022-08-04T19:45:16;26.50;99.90
17639;DHT22;8938;53.546;9.954;2022-08-04T19:47:42;26.50;99.90
17639;DHT22;8938;53.546;9.954;2022-08-04T19:50:08;26.50;99.90
17639;DHT22;8938;53.546;9.954;2022-08-04T19:52:34;26.60;99.90
17639;DHT22;8938;53.546;9.954;2022-08-04T19:54:59;26.40;99.90
17639;DHT22;8938;53.546;9.954;2022-08-04T19:57:25;26.40;99.90
17639;DHT22;8938;53.546;9.954;2022-08-04T19:59:50;26.30;99.90
17639;DHT22;8938;53.546;9.954;2022-08-04T20:02:16;26.30;99.90
17639;DHT22;8938;53.546;9.954;2022-08-04T20:04:41;26.30;99.90
17639;DHT22;8938;53.546;9.954;2022-08-04T20:07:07;26.30;99.90
17639;DHT22;8938;53.546;9.954;2022-08-04T20:09:32;26.30;99.90
17639;DHT22;8938;53.546;9.954;2022-08-04T20:11:58;26.30;99.90